Hendersonville, NC

7:10 PM EDT on October 31, 2014 (GMT -0400)
North Ridge Road | Change Station
CLOSE
Current Station
Personal Weather Station
Location: Hendersonville, NC
Elevation: 2218 ft
Nearby Weather Stations

Elev 2218 ft 35.38 °N, 82.35 °W | Updated 14 seconds ago

Overcast
Overcast
44.7 °F
Feels Like 43 °F
N
4.0
Wind Variable Wind from NW
Gusts 9.0 mph

Today
High -- | Low -- °F
--% Chance of Precip.
Yesterday
High -- | Low -- °F
Precip. -- in
7:49 AM 6:35 PM
First Quarter, 60% visible
Pressure 29.84 in
Visibility 10.0 miles
Clouds Overcast 4700 ft
Windchill 43 °F
Dew Point 40 °F
Humidity 82%
Rainfall 0.09 in
Snow Depth Not available.
UV 0 out of 12
Pollen 1.30 out of 12
Air Quality Not available.
Flu Activity Not available.
METAR KAVL 312254Z 34013KT 10SM -RA OVC047 07/04 A2984 RMK AO2 RAB28 SLP104 P0000 T00720044

More Conditions Fewer Conditions

Pressure 29.84 in
Visibility 10.0 miles
Clouds Overcast 4700 ft
Windchill 43 °F
Dew Point 40 °F
Humidity 82%
Rainfall 0.09 in
Snow Depth Not available.
UV 0 out of 12
Pollen 1.30 out of 12
Air Quality Not available.
Flu Activity Not available.
METAR KAVL 312254Z 34013KT 10SM -RA OVC047 07/04 A2984 RMK AO2 RAB28 SLP104 P0000 T00720044

More Conditions Fewer Conditions

10-Day Weather Forecast

Almanac

Astronomy

Oct. 31, 2014 Rise Set
Actual Time
Civil Twilight
Nautical Twilight
Astronomical Twilight
Moon
Length of Visible Light
Length of Day
Tomorrow will be .
, % of the Moon is Illuminated

Today's Extremes

State Highs State Lows

Community

WunderPhotos

Upload Photos

1,766,775 photos uploaded!

WunderBlogs® & News

Nearby

Air Quality

  Air Quality AQ Index Pollutant
Not available.

Snow Depth

Station Depth Elevation

Earthquake Activity

City Distance Mag. Time & Date
Minimum magnitude displayed is 2.5.

Coastal Water Temperatures

Place Temperature

Nearby Weather Stations